Aérodrome :
LOGIN :

S'inscrire | Disclaimer

   EN    FR    IT 

 










Légende :    VFR   VFR Marginal   IFR   IFR Intensif   IFR Très Intensif
Visi : 
Plafond : 
>= 8 km
>= 3000ft
5 à 8 km
1000 à 3000 ft
1500m à 5 km
500 à 1000 ft
800 à 1500m
200 à 500 ft
< 800m
< 200 ft
Symboles :   Orages  Brouillard  Fortes neiges  Fortes précipitations  Vent > 20 kt
SIGMETs :   Divers  Orages  Givrage  Turbulence  Onde Orograph.  Cendres Volcan.







- Altitude de l'aérodrome : 1017 ft
- Voir les cartes d'approche


LFSL - Brive Souillac

DERNIER METAR :
  • 261830Z AUTO 14005KT 100V190 CAVOK 27/15 Q1014 NOSIG

METARs EXPIRÉS :
  • 261800Z AUTO 14007KT 110V170 CAVOK 28/14 Q1013 NOSIG
  • 261730Z AUTO 13008KT 100V180 CAVOK 29/15 Q1013 NOSIG
  • 261700Z AUTO 14010KT 100V180 CAVOK 29/14 Q1013 NOSIG
  • 261630Z AUTO 15008KT 110V200 CAVOK 31/13 Q1013 NOSIG
  • 261600Z AUTO 16009KT 110V190 CAVOK 30/14 Q1013 NOSIG

TAF TAF LFSL
Valide du 26 à 15h jusqu'au 27 à 00h UTC


261400Z 2615/2624 16008KT CAVOK
Pas de NOTAMs connus pour ce terrain.
1 SIGMET publié pour la FIR Bordeaux (LFBB) :
 
Orages noyés dans la masse
LFBB SIGMET 4 VALID 261700/261900 LFPW
LFBB BORDEAUX FIR/UIR EMBD TS OBS AT 1700Z WI N4300 W00100 - N4330 W00045 - N4300 E00100 - N4245 E00100 TOP FL390 STNR WKN=



MET'MAP, la Météo Aéronautique d'un coup d'oeil ! - Copyright ORBIFLY Décembre 2007 - Disclaimer

ORBIFLY MET'MAP TEAM :

Programmation & Développement : Alexandra Zaïnal
Conception & Développement : Baudouin d'Aumeries
Co-Programmation & Développement : Marc-Olivier Méhu
Soutien technique & logistique : Manuel Goepfert

Contact : metmap@orbifly.com




SOURCES & CREDITS :

   NOAA